sensor_id;sensor_type;location;lat;lon;timestamp;P1;durP1;ratioP1;P2;durP2;ratioP2
35444;SDS011;21562;49.476;6.086;2022-12-29T00:02:14;2.53;;;1.58;;
35444;SDS011;21562;49.476;6.086;2022-12-29T00:04:40;2.92;;;1.77;;
35444;SDS011;21562;49.476;6.086;2022-12-29T00:07:06;2.58;;;1.50;;
35444;SDS011;21562;49.476;6.086;2022-12-29T00:09:32;2.55;;;1.73;;
35444;SDS011;21562;49.476;6.086;2022-12-29T00:11:59;2.38;;;1.40;;
35444;SDS011;21562;49.476;6.086;2022-12-29T00:14:26;3.05;;;1.25;;
35444;SDS011;21562;49.476;6.086;2022-12-29T00:17:10;3.60;;;1.50;;
35444;SDS011;21562;49.476;6.086;2022-12-29T00:19:36;9.30;;;1.98;;
35444;SDS011;21562;49.476;6.086;2022-12-29T00:22:21;2.35;;;1.40;;
35444;SDS011;21562;49.476;6.086;2022-12-29T00:25:07;2.97;;;1.45;;
35444;SDS011;21562;49.476;6.086;2022-12-29T00:27:34;2.50;;;1.83;;
35444;SDS011;21562;49.476;6.086;2022-12-29T00:33:16;2.25;;;1.27;;
35444;SDS011;21562;49.476;6.086;2022-12-29T00:38:33;3.20;;;1.58;;
35444;SDS011;21562;49.476;6.086;2022-12-29T00:41:21;4.38;;;2.08;;
35444;SDS011;21562;49.476;6.086;2022-12-29T00:44:06;4.55;;;2.25;;
35444;SDS011;21562;49.476;6.086;2022-12-29T00:46:39;8.07;;;2.50;;
35444;SDS011;21562;49.476;6.086;2022-12-29T00:49:07;8.15;;;2.10;;
35444;SDS011;21562;49.476;6.086;2022-12-29T00:51:52;4.05;;;2.38;;
35444;SDS011;21562;49.476;6.086;2022-12-29T00:54:19;3.88;;;2.08;;
35444;SDS011;21562;49.476;6.086;2022-12-29T00:56:46;4.72;;;2.45;;
35444;SDS011;21562;49.476;6.086;2022-12-29T00:59:13;8.43;;;2.50;;
35444;SDS011;21562;49.476;6.086;2022-12-29T01:01:39;5.38;;;2.45;;
35444;SDS011;21562;49.476;6.086;2022-12-29T01:04:05;3.60;;;2.30;;
35444;SDS011;21562;49.476;6.086;2022-12-29T01:06:32;6.25;;;2.85;;
35444;SDS011;21562;49.476;6.086;2022-12-29T01:08:58;9.90;;;2.38;;
35444;SDS011;21562;49.476;6.086;2022-12-29T01:11:42;6.90;;;2.22;;
35444;SDS011;21562;49.476;6.086;2022-12-29T01:14:08;5.32;;;2.80;;
35444;SDS011;21562;49.476;6.086;2022-12-29T01:16:33;4.95;;;2.60;;
35444;SDS011;21562;49.476;6.086;2022-12-29T01:19:01;5.55;;;2.60;;
35444;SDS011;21562;49.476;6.086;2022-12-29T01:21:27;7.63;;;2.83;;
35444;SDS011;21562;49.476;6.086;2022-12-29T01:23:52;7.85;;;3.20;;
35444;SDS011;21562;49.476;6.086;2022-12-29T01:26:18;5.40;;;2.33;;
35444;SDS011;21562;49.476;6.086;2022-12-29T01:28:44;7.05;;;2.72;;
35444;SDS011;21562;49.476;6.086;2022-12-29T01:31:10;4.85;;;3.08;;
35444;SDS011;21562;49.476;6.086;2022-12-29T01:33:38;4.60;;;2.58;;
35444;SDS011;21562;49.476;6.086;2022-12-29T01:36:04;4.20;;;2.85;;
35444;SDS011;21562;49.476;6.086;2022-12-29T01:38:33;4.75;;;2.58;;
35444;SDS011;21562;49.476;6.086;2022-12-29T01:41:00;6.68;;;2.83;;
35444;SDS011;21562;49.476;6.086;2022-12-29T01:43:42;6.20;;;2.85;;
35444;SDS011;21562;49.476;6.086;2022-12-29T01:46:35;9.65;;;3.40;;
35444;SDS011;21562;49.476;6.086;2022-12-29T01:51:35;9.35;;;3.95;;
35444;SDS011;21562;49.476;6.086;2022-12-29T01:54:16;6.32;;;2.60;;
35444;SDS011;21562;49.476;6.086;2022-12-29T01:56:44;9.13;;;2.67;;
35444;SDS011;21562;49.476;6.086;2022-12-29T01:59:12;11.25;;;2.80;;
35444;SDS011;21562;49.476;6.086;2022-12-29T02:01:43;6.45;;;3.15;;
35444;SDS011;21562;49.476;6.086;2022-12-29T02:04:09;5.13;;;2.72;;
35444;SDS011;21562;49.476;6.086;2022-12-29T02:06:38;9.38;;;2.67;;
35444;SDS011;21562;49.476;6.086;2022-12-29T02:09:12;6.88;;;2.28;;
35444;SDS011;21562;49.476;6.086;2022-12-29T02:11:38;4.25;;;2.30;;
35444;SDS011;21562;49.476;6.086;2022-12-29T02:14:11;5.10;;;2.50;;
35444;SDS011;21562;49.476;6.086;2022-12-29T02:22:19;7.03;;;2.45;;
35444;SDS011;21562;49.476;6.086;2022-12-29T02:30:15;6.82;;;2.05;;
35444;SDS011;21562;49.476;6.086;2022-12-29T02:38:20;4.57;;;2.00;;
35444;SDS011;21562;49.476;6.086;2022-12-29T02:40:48;4.60;;;1.88;;
35444;SDS011;21562;49.476;6.086;2022-12-29T02:51:29;4.30;;;1.63;;
35444;SDS011;21562;49.476;6.086;2022-12-29T02:54:04;7.30;;;2.03;;
35444;SDS011;21562;49.476;6.086;2022-12-29T02:56:49;4.70;;;1.90;;
35444;SDS011;21562;49.476;6.086;2022-12-29T02:59:15;3.95;;;1.73;;
35444;SDS011;21562;49.476;6.086;2022-12-29T03:13:12;6.85;;;2.20;;
35444;SDS011;21562;49.476;6.086;2022-12-29T03:16:10;4.47;;;1.75;;
35444;SDS011;21562;49.476;6.086;2022-12-29T03:19:00;10.98;;;1.90;;
35444;SDS011;21562;49.476;6.086;2022-12-29T03:24:24;3.58;;;1.85;;
35444;SDS011;21562;49.476;6.086;2022-12-29T03:26:53;5.60;;;1.85;;
35444;SDS011;21562;49.476;6.086;2022-12-29T03:29:22;7.35;;;1.40;;
35444;SDS011;21562;49.476;6.086;2022-12-29T03:31:49;3.67;;;1.58;;
35444;SDS011;21562;49.476;6.086;2022-12-29T03:34:17;10.57;;;1.60;;
35444;SDS011;21562;49.476;6.086;2022-12-29T03:36:49;3.35;;;1.75;;
35444;SDS011;21562;49.476;6.086;2022-12-29T03:39:18;5.35;;;1.85;;
35444;SDS011;21562;49.476;6.086;2022-12-29T03:41:48;10.65;;;1.70;;
35444;SDS011;21562;49.476;6.086;2022-12-29T03:44:21;4.55;;;1.65;;
35444;SDS011;21562;49.476;6.086;2022-12-29T03:46:55;7.93;;;1.80;;
35444;SDS011;21562;49.476;6.086;2022-12-29T03:49:21;3.78;;;1.40;;
35444;SDS011;21562;49.476;6.086;2022-12-29T03:51:47;3.65;;;1.80;;
35444;SDS011;21562;49.476;6.086;2022-12-29T03:54:12;3.17;;;1.52;;
35444;SDS011;21562;49.476;6.086;2022-12-29T03:56:38;3.25;;;1.45;;
35444;SDS011;21562;49.476;6.086;2022-12-29T03:59:04;6.65;;;2.05;;
35444;SDS011;21562;49.476;6.086;2022-12-29T04:01:29;3.13;;;1.48;;
35444;SDS011;21562;49.476;6.086;2022-12-29T04:03:55;5.65;;;1.60;;
35444;SDS011;21562;49.476;6.086;2022-12-29T04:06:21;5.22;;;1.73;;
35444;SDS011;21562;49.476;6.086;2022-12-29T04:08:46;5.65;;;1.58;;
35444;SDS011;21562;49.476;6.086;2022-12-29T04:11:12;3.53;;;1.60;;
35444;SDS011;21562;49.476;6.086;2022-12-29T04:13:38;6.68;;;2.22;;
35444;SDS011;21562;49.476;6.086;2022-12-29T04:16:05;5.88;;;1.60;;
35444;SDS011;21562;49.476;6.086;2022-12-29T04:18:31;4.50;;;1.65;;
35444;SDS011;21562;49.476;6.086;2022-12-29T04:20:57;3.60;;;1.48;;
35444;SDS011;21562;49.476;6.086;2022-12-29T04:23:26;8.43;;;1.95;;
35444;SDS011;21562;49.476;6.086;2022-12-29T04:25:52;5.93;;;1.30;;
35444;SDS011;21562;49.476;6.086;2022-12-29T04:28:18;3.88;;;1.70;;
35444;SDS011;21562;49.476;6.086;2022-12-29T04:30:44;4.78;;;1.35;;
35444;SDS011;21562;49.476;6.086;2022-12-29T04:33:11;6.55;;;1.80;;
35444;SDS011;21562;49.476;6.086;2022-12-29T04:35:37;4.65;;;1.75;;
35444;SDS011;21562;49.476;6.086;2022-12-29T04:38:02;5.18;;;1.63;;
35444;SDS011;21562;49.476;6.086;2022-12-29T04:40:28;5.10;;;1.40;;
35444;SDS011;21562;49.476;6.086;2022-12-29T04:42:54;6.35;;;2.00;;
35444;SDS011;21562;49.476;6.086;2022-12-29T04:45:20;5.80;;;1.50;;
35444;SDS011;21562;49.476;6.086;2022-12-29T04:47:45;3.50;;;1.38;;
35444;SDS011;21562;49.476;6.086;2022-12-29T04:50:11;3.42;;;1.30;;
35444;SDS011;21562;49.476;6.086;2022-12-29T04:52:37;3.05;;;1.52;;
35444;SDS011;21562;49.476;6.086;2022-12-29T04:55:03;6.97;;;1.48;;
35444;SDS011;21562;49.476;6.086;2022-12-29T04:57:30;3.78;;;1.77;;
35444;SDS011;21562;49.476;6.086;2022-12-29T04:59:55;3.63;;;1.70;;
35444;SDS011;21562;49.476;6.086;2022-12-29T05:02:21;3.15;;;1.38;;
35444;SDS011;21562;49.476;6.086;2022-12-29T05:04:47;3.28;;;1.42;;
35444;SDS011;21562;49.476;6.086;2022-12-29T05:07:13;3.08;;;1.40;;
35444;SDS011;21562;49.476;6.086;2022-12-29T05:09:39;3.80;;;1.58;;
35444;SDS011;21562;49.476;6.086;2022-12-29T05:12:05;3.05;;;1.80;;
35444;SDS011;21562;49.476;6.086;2022-12-29T05:14:31;4.93;;;1.98;;
35444;SDS011;21562;49.476;6.086;2022-12-29T05:16:57;6.13;;;1.73;;
35444;SDS011;21562;49.476;6.086;2022-12-29T05:19:23;4.47;;;2.15;;
35444;SDS011;21562;49.476;6.086;2022-12-29T05:21:48;6.45;;;1.73;;
35444;SDS011;21562;49.476;6.086;2022-12-29T05:24:14;5.55;;;1.95;;
35444;SDS011;21562;49.476;6.086;2022-12-29T05:26:40;8.18;;;2.35;;
35444;SDS011;21562;49.476;6.086;2022-12-29T05:29:06;6.13;;;2.65;;
35444;SDS011;21562;49.476;6.086;2022-12-29T05:31:32;14.35;;;2.50;;
35444;SDS011;21562;49.476;6.086;2022-12-29T05:33:58;6.00;;;2.17;;
35444;SDS011;21562;49.476;6.086;2022-12-29T05:36:24;3.78;;;2.35;;
35444;SDS011;21562;49.476;6.086;2022-12-29T05:38:49;3.40;;;2.30;;
35444;SDS011;21562;49.476;6.086;2022-12-29T05:41:15;10.15;;;2.50;;
35444;SDS011;21562;49.476;6.086;2022-12-29T05:43:41;7.75;;;2.35;;
35444;SDS011;21562;49.476;6.086;2022-12-29T05:46:07;6.93;;;2.20;;
35444;SDS011;21562;49.476;6.086;2022-12-29T05:48:32;5.85;;;2.10;;
35444;SDS011;21562;49.476;6.086;2022-12-29T05:50:58;6.82;;;2.45;;
35444;SDS011;21562;49.476;6.086;2022-12-29T05:53:24;5.57;;;1.98;;
35444;SDS011;21562;49.476;6.086;2022-12-29T05:55:49;6.95;;;2.45;;
35444;SDS011;21562;49.476;6.086;2022-12-29T05:58:16;5.28;;;2.10;;
35444;SDS011;21562;49.476;6.086;2022-12-29T06:00:42;4.45;;;2.47;;
35444;SDS011;21562;49.476;6.086;2022-12-29T06:03:08;5.78;;;2.40;;
35444;SDS011;21562;49.476;6.086;2022-12-29T06:05:34;4.45;;;2.35;;
35444;SDS011;21562;49.476;6.086;2022-12-29T06:07:59;6.05;;;2.42;;
35444;SDS011;21562;49.476;6.086;2022-12-29T06:10:25;4.88;;;2.05;;
35444;SDS011;21562;49.476;6.086;2022-12-29T06:12:51;4.10;;;2.53;;
35444;SDS011;21562;49.476;6.086;2022-12-29T06:15:17;6.35;;;2.25;;
35444;SDS011;21562;49.476;6.086;2022-12-29T06:17:42;4.88;;;2.35;;
35444;SDS011;21562;49.476;6.086;2022-12-29T06:20:09;7.93;;;2.10;;
35444;SDS011;21562;49.476;6.086;2022-12-29T06:22:35;7.35;;;2.75;;
35444;SDS011;21562;49.476;6.086;2022-12-29T06:25:01;9.85;;;2.17;;
35444;SDS011;21562;49.476;6.086;2022-12-29T06:27:28;9.50;;;2.20;;
35444;SDS011;21562;49.476;6.086;2022-12-29T06:29:53;12.02;;;3.17;;
35444;SDS011;21562;49.476;6.086;2022-12-29T06:32:19;6.68;;;2.17;;
35444;SDS011;21562;49.476;6.086;2022-12-29T06:34:46;7.57;;;2.60;;
35444;SDS011;21562;49.476;6.086;2022-12-29T06:37:11;9.35;;;2.60;;
35444;SDS011;21562;49.476;6.086;2022-12-29T06:39:38;6.32;;;2.03;;
35444;SDS011;21562;49.476;6.086;2022-12-29T06:42:04;5.70;;;2.13;;
35444;SDS011;21562;49.476;6.086;2022-12-29T06:44:29;5.50;;;2.10;;
35444;SDS011;21562;49.476;6.086;2022-12-29T06:46:55;3.20;;;2.05;;
35444;SDS011;21562;49.476;6.086;2022-12-29T06:49:22;6.28;;;2.17;;
35444;SDS011;21562;49.476;6.086;2022-12-29T06:51:48;5.45;;;2.00;;
35444;SDS011;21562;49.476;6.086;2022-12-29T06:54:14;4.15;;;2.10;;
35444;SDS011;21562;49.476;6.086;2022-12-29T06:56:40;7.80;;;2.97;;
35444;SDS011;21562;49.476;6.086;2022-12-29T06:59:05;6.03;;;2.45;;
35444;SDS011;21562;49.476;6.086;2022-12-29T07:01:31;8.25;;;2.53;;
35444;SDS011;21562;49.476;6.086;2022-12-29T07:03:57;9.45;;;2.78;;
35444;SDS011;21562;49.476;6.086;2022-12-29T07:06:23;9.98;;;2.72;;
35444;SDS011;21562;49.476;6.086;2022-12-29T07:08:48;7.18;;;2.60;;
35444;SDS011;21562;49.476;6.086;2022-12-29T07:11:14;4.80;;;2.22;;
35444;SDS011;21562;49.476;6.086;2022-12-29T07:13:40;3.70;;;1.20;;
35444;SDS011;21562;49.476;6.086;2022-12-29T07:16:08;5.20;;;2.35;;
35444;SDS011;21562;49.476;6.086;2022-12-29T07:18:34;3.60;;;1.85;;
35444;SDS011;21562;49.476;6.086;2022-12-29T07:21:01;4.43;;;1.77;;
35444;SDS011;21562;49.476;6.086;2022-12-29T07:23:27;4.57;;;1.40;;
35444;SDS011;21562;49.476;6.086;2022-12-29T07:26:12;5.05;;;0.90;;
35444;SDS011;21562;49.476;6.086;2022-12-29T07:28:39;1.70;;;0.68;;
35444;SDS011;21562;49.476;6.086;2022-12-29T07:31:06;1.50;;;0.63;;
35444;SDS011;21562;49.476;6.086;2022-12-29T07:33:39;1.45;;;0.63;;
35444;SDS011;21562;49.476;6.086;2022-12-29T07:36:05;0.93;;;0.47;;
35444;SDS011;21562;49.476;6.086;2022-12-29T07:38:31;2.63;;;0.70;;
35444;SDS011;21562;49.476;6.086;2022-12-29T07:40:57;1.13;;;0.45;;
35444;SDS011;21562;49.476;6.086;2022-12-29T07:43:23;2.63;;;0.82;;
35444;SDS011;21562;49.476;6.086;2022-12-29T07:45:49;3.92;;;0.60;;
35444;SDS011;21562;49.476;6.086;2022-12-29T07:48:14;1.85;;;0.40;;
35444;SDS011;21562;49.476;6.086;2022-12-29T07:50:40;1.83;;;0.45;;
35444;SDS011;21562;49.476;6.086;2022-12-29T07:53:06;1.25;;;0.52;;
35444;SDS011;21562;49.476;6.086;2022-12-29T07:55:31;3.80;;;0.63;;
35444;SDS011;21562;49.476;6.086;2022-12-29T07:57:57;2.70;;;0.38;;
35444;SDS011;21562;49.476;6.086;2022-12-29T08:00:23;1.85;;;0.40;;
35444;SDS011;21562;49.476;6.086;2022-12-29T08:02:49;3.08;;;0.52;;
35444;SDS011;21562;49.476;6.086;2022-12-29T08:05:15;2.92;;;0.52;;
35444;SDS011;21562;49.476;6.086;2022-12-29T08:07:45;3.53;;;0.40;;
35444;SDS011;21562;49.476;6.086;2022-12-29T08:10:11;5.82;;;0.77;;
35444;SDS011;21562;49.476;6.086;2022-12-29T08:12:38;5.47;;;1.08;;
35444;SDS011;21562;49.476;6.086;2022-12-29T08:15:07;3.83;;;0.30;;
35444;SDS011;21562;49.476;6.086;2022-12-29T08:17:33;1.42;;;0.40;;
35444;SDS011;21562;49.476;6.086;2022-12-29T08:19:59;2.85;;;0.40;;
35444;SDS011;21562;49.476;6.086;2022-12-29T08:22:25;0.40;;;0.30;;
35444;SDS011;21562;49.476;6.086;2022-12-29T08:24:51;4.10;;;0.63;;
35444;SDS011;21562;49.476;6.086;2022-12-29T08:27:17;4.80;;;0.52;;
35444;SDS011;21562;49.476;6.086;2022-12-29T08:29:43;3.33;;;0.68;;
35444;SDS011;21562;49.476;6.086;2022-12-29T08:32:09;1.65;;;0.63;;
35444;SDS011;21562;49.476;6.086;2022-12-29T08:34:36;3.28;;;0.75;;
35444;SDS011;21562;49.476;6.086;2022-12-29T08:37:01;4.20;;;0.73;;
35444;SDS011;21562;49.476;6.086;2022-12-29T08:39:27;4.70;;;0.80;;
35444;SDS011;21562;49.476;6.086;2022-12-29T08:41:53;2.80;;;0.28;;
35444;SDS011;21562;49.476;6.086;2022-12-29T08:44:19;4.63;;;0.50;;
35444;SDS011;21562;49.476;6.086;2022-12-29T08:46:45;6.22;;;0.60;;
35444;SDS011;21562;49.476;6.086;2022-12-29T08:49:10;3.67;;;0.65;;
35444;SDS011;21562;49.476;6.086;2022-12-29T08:51:36;1.08;;;0.30;;
35444;SDS011;21562;49.476;6.086;2022-12-29T08:54:02;4.50;;;0.60;;
35444;SDS011;21562;49.476;6.086;2022-12-29T08:56:29;1.60;;;0.60;;
35444;SDS011;21562;49.476;6.086;2022-12-29T08:58:54;7.55;;;1.20;;
35444;SDS011;21562;49.476;6.086;2022-12-29T09:01:20;5.85;;;0.60;;
35444;SDS011;21562;49.476;6.086;2022-12-29T09:03:46;3.90;;;0.57;;
35444;SDS011;21562;49.476;6.086;2022-12-29T09:06:12;4.03;;;0.77;;
35444;SDS011;21562;49.476;6.086;2022-12-29T09:08:38;7.13;;;0.73;;
35444;SDS011;21562;49.476;6.086;2022-12-29T09:11:08;6.82;;;1.15;;
35444;SDS011;21562;49.476;6.086;2022-12-29T09:13:35;8.25;;;0.70;;
35444;SDS011;21562;49.476;6.086;2022-12-29T09:16:00;10.63;;;1.83;;
35444;SDS011;21562;49.476;6.086;2022-12-29T09:18:26;13.10;;;1.48;;
35444;SDS011;21562;49.476;6.086;2022-12-29T09:20:59;8.60;;;1.00;;
35444;SDS011;21562;49.476;6.086;2022-12-29T09:23:26;2.65;;;0.70;;
35444;SDS011;21562;49.476;6.086;2022-12-29T09:25:52;9.10;;;1.05;;
35444;SDS011;21562;49.476;6.086;2022-12-29T09:28:19;3.58;;;0.90;;
35444;SDS011;21562;49.476;6.086;2022-12-29T09:30:45;5.85;;;0.88;;
35444;SDS011;21562;49.476;6.086;2022-12-29T09:33:11;4.97;;;1.02;;
35444;SDS011;21562;49.476;6.086;2022-12-29T09:35:36;4.82;;;0.80;;
35444;SDS011;21562;49.476;6.086;2022-12-29T09:38:02;11.15;;;0.80;;
35444;SDS011;21562;49.476;6.086;2022-12-29T09:40:31;3.42;;;0.68;;
35444;SDS011;21562;49.476;6.086;2022-12-29T09:45:26;8.38;;;0.70;;
35444;SDS011;21562;49.476;6.086;2022-12-29T09:47:57;6.80;;;1.08;;
35444;SDS011;21562;49.476;6.086;2022-12-29T09:50:41;6.63;;;0.68;;
35444;SDS011;21562;49.476;6.086;2022-12-29T09:53:54;4.60;;;0.60;;
35444;SDS011;21562;49.476;6.086;2022-12-29T09:56:10;2.40;;;0.60;;
35444;SDS011;21562;49.476;6.086;2022-12-29T09:59:01;6.80;;;0.65;;
35444;SDS011;21562;49.476;6.086;2022-12-29T10:01:36;6.70;;;1.00;;
35444;SDS011;21562;49.476;6.086;2022-12-29T10:04:11;7.05;;;0.95;;
35444;SDS011;21562;49.476;6.086;2022-12-29T10:06:49;5.40;;;0.90;;
35444;SDS011;21562;49.476;6.086;2022-12-29T10:14:53;5.25;;;0.77;;
35444;SDS011;21562;49.476;6.086;2022-12-29T10:17:27;9.40;;;1.13;;
35444;SDS011;21562;49.476;6.086;2022-12-29T10:20:18;6.50;;;0.90;;
35444;SDS011;21562;49.476;6.086;2022-12-29T10:23:26;3.83;;;1.05;;
35444;SDS011;21562;49.476;6.086;2022-12-29T10:28:56;6.43;;;1.05;;
35444;SDS011;21562;49.476;6.086;2022-12-29T10:32:13;4.80;;;0.93;;
35444;SDS011;21562;49.476;6.086;2022-12-29T10:34:25;3.17;;;0.70;;
35444;SDS011;21562;49.476;6.086;2022-12-29T10:37:17;3.67;;;0.77;;
35444;SDS011;21562;49.476;6.086;2022-12-29T10:39:53;6.40;;;1.17;;
35444;SDS011;21562;49.476;6.086;2022-12-29T10:45:19;4.85;;;0.95;;
35444;SDS011;21562;49.476;6.086;2022-12-29T10:48:05;2.92;;;0.68;;
35444;SDS011;21562;49.476;6.086;2022-12-29T10:50:34;7.63;;;0.70;;
35444;SDS011;21562;49.476;6.086;2022-12-29T10:53:02;8.45;;;0.80;;
35444;SDS011;21562;49.476;6.086;2022-12-29T10:55:36;7.05;;;1.05;;
35444;SDS011;21562;49.476;6.086;2022-12-29T10:58:05;7.60;;;1.00;;
35444;SDS011;21562;49.476;6.086;2022-12-29T11:00:32;8.88;;;1.00;;
35444;SDS011;21562;49.476;6.086;2022-12-29T11:08:27;7.53;;;0.80;;
35444;SDS011;21562;49.476;6.086;2022-12-29T11:10:57;8.77;;;1.23;;
35444;SDS011;21562;49.476;6.086;2022-12-29T11:13:29;7.95;;;1.15;;
35444;SDS011;21562;49.476;6.086;2022-12-29T11:15:56;6.95;;;1.20;;
35444;SDS011;21562;49.476;6.086;2022-12-29T11:21:03;5.45;;;1.83;;
35444;SDS011;21562;49.476;6.086;2022-12-29T11:23:37;5.85;;;0.85;;
35444;SDS011;21562;49.476;6.086;2022-12-29T11:26:11;8.05;;;1.58;;
35444;SDS011;21562;49.476;6.086;2022-12-29T11:28:38;5.60;;;1.42;;
35444;SDS011;21562;49.476;6.086;2022-12-29T11:31:06;7.43;;;1.10;;
35444;SDS011;21562;49.476;6.086;2022-12-29T11:33:34;7.70;;;1.10;;
35444;SDS011;21562;49.476;6.086;2022-12-29T11:36:02;7.53;;;1.35;;
35444;SDS011;21562;49.476;6.086;2022-12-29T11:38:33;6.18;;;1.00;;
35444;SDS011;21562;49.476;6.086;2022-12-29T11:41:05;7.85;;;1.70;;
35444;SDS011;21562;49.476;6.086;2022-12-29T11:43:40;6.88;;;1.25;;
35444;SDS011;21562;49.476;6.086;2022-12-29T11:46:14;11.57;;;1.27;;
35444;SDS011;21562;49.476;6.086;2022-12-29T11:48:41;13.15;;;2.25;;
35444;SDS011;21562;49.476;6.086;2022-12-29T11:51:08;12.48;;;1.30;;
35444;SDS011;21562;49.476;6.086;2022-12-29T11:54:19;6.50;;;1.05;;
35444;SDS011;21562;49.476;6.086;2022-12-29T11:56:34;7.63;;;1.13;;
35444;SDS011;21562;49.476;6.086;2022-12-29T12:02:25;12.27;;;2.05;;
35444;SDS011;21562;49.476;6.086;2022-12-29T12:07:46;9.95;;;1.60;;
35444;SDS011;21562;49.476;6.086;2022-12-29T12:10:31;15.07;;;1.73;;
35444;SDS011;21562;49.476;6.086;2022-12-29T12:13:06;9.30;;;2.17;;
35444;SDS011;21562;49.476;6.086;2022-12-29T12:15:40;7.72;;;2.22;;
35444;SDS011;21562;49.476;6.086;2022-12-29T12:18:26;7.40;;;1.35;;
35444;SDS011;21562;49.476;6.086;2022-12-29T12:20:57;9.57;;;1.30;;
35444;SDS011;21562;49.476;6.086;2022-12-29T12:26:42;7.38;;;1.27;;
35444;SDS011;21562;49.476;6.086;2022-12-29T12:29:19;9.63;;;1.20;;
35444;SDS011;21562;49.476;6.086;2022-12-29T12:34:38;7.50;;;1.43;;
35444;SDS011;21562;49.476;6.086;2022-12-29T12:58:54;10.77;;;1.25;;
35444;SDS011;21562;49.476;6.086;2022-12-29T13:13:03;9.27;;;1.55;;
35444;SDS011;21562;49.476;6.086;2022-12-29T13:20:47;8.60;;;1.70;;
35444;SDS011;21562;49.476;6.086;2022-12-29T13:31:19;8.13;;;1.35;;
35444;SDS011;21562;49.476;6.086;2022-12-29T13:36:18;9.57;;;1.42;;
35444;SDS011;21562;49.476;6.086;2022-12-29T13:39:02;8.15;;;1.52;;
35444;SDS011;21562;49.476;6.086;2022-12-29T13:41:40;11.18;;;1.40;;
35444;SDS011;21562;49.476;6.086;2022-12-29T13:44:15;8.68;;;2.10;;
35444;SDS011;21562;49.476;6.086;2022-12-29T13:46:48;9.18;;;2.25;;
35444;SDS011;21562;49.476;6.086;2022-12-29T13:49:18;9.50;;;1.15;;
35444;SDS011;21562;49.476;6.086;2022-12-29T13:51:55;7.70;;;1.20;;
35444;SDS011;21562;49.476;6.086;2022-12-29T13:57:32;8.45;;;1.30;;
35444;SDS011;21562;49.476;6.086;2022-12-29T14:07:43;14.48;;;1.42;;
35444;SDS011;21562;49.476;6.086;2022-12-29T14:13:05;7.10;;;1.17;;
35444;SDS011;21562;49.476;6.086;2022-12-29T14:15:40;5.38;;;1.13;;
35444;SDS011;21562;49.476;6.086;2022-12-29T14:18:17;7.10;;;1.00;;
35444;SDS011;21562;49.476;6.086;2022-12-29T14:20:49;10.55;;;1.83;;
35444;SDS011;21562;49.476;6.086;2022-12-29T14:23:27;7.53;;;1.30;;
35444;SDS011;21562;49.476;6.086;2022-12-29T14:26:00;12.00;;;1.40;;
35444;SDS011;21562;49.476;6.086;2022-12-29T14:28:44;10.88;;;1.67;;
35444;SDS011;21562;49.476;6.086;2022-12-29T14:33:39;11.75;;;1.73;;
35444;SDS011;21562;49.476;6.086;2022-12-29T14:38:50;12.65;;;1.40;;
35444;SDS011;21562;49.476;6.086;2022-12-29T14:41:17;13.75;;;1.70;;
35444;SDS011;21562;49.476;6.086;2022-12-29T14:43:57;17.08;;;1.55;;
35444;SDS011;21562;49.476;6.086;2022-12-29T14:47:33;11.98;;;1.70;;
35444;SDS011;21562;49.476;6.086;2022-12-29T14:49:32;13.27;;;1.80;;
35444;SDS011;21562;49.476;6.086;2022-12-29T14:52:07;14.85;;;1.63;;
35444;SDS011;21562;49.476;6.086;2022-12-29T14:54:50;9.10;;;2.15;;
35444;SDS011;21562;49.476;6.086;2022-12-29T14:57:21;13.80;;;1.45;;
35444;SDS011;21562;49.476;6.086;2022-12-29T14:59:54;11.95;;;1.60;;
35444;SDS011;21562;49.476;6.086;2022-12-29T15:02:28;13.45;;;2.03;;
35444;SDS011;21562;49.476;6.086;2022-12-29T15:04:59;9.23;;;1.50;;
35444;SDS011;21562;49.476;6.086;2022-12-29T15:07:27;18.35;;;1.65;;
35444;SDS011;21562;49.476;6.086;2022-12-29T15:09:56;18.63;;;2.65;;
35444;SDS011;21562;49.476;6.086;2022-12-29T15:12:45;13.15;;;2.00;;
35444;SDS011;21562;49.476;6.086;2022-12-29T15:17:47;12.27;;;1.65;;
35444;SDS011;21562;49.476;6.086;2022-12-29T15:20:24;12.52;;;1.83;;
35444;SDS011;21562;49.476;6.086;2022-12-29T15:23:09;14.35;;;2.00;;
35444;SDS011;21562;49.476;6.086;2022-12-29T15:25:52;19.35;;;2.42;;
35444;SDS011;21562;49.476;6.086;2022-12-29T15:28:19;14.65;;;2.00;;
35444;SDS011;21562;49.476;6.086;2022-12-29T15:33:38;15.02;;;2.95;;
35444;SDS011;21562;49.476;6.086;2022-12-29T15:36:10;19.90;;;2.08;;
35444;SDS011;21562;49.476;6.086;2022-12-29T15:38:38;10.93;;;1.60;;
35444;SDS011;21562;49.476;6.086;2022-12-29T15:41:06;14.75;;;2.25;;
35444;SDS011;21562;49.476;6.086;2022-12-29T15:44:23;17.42;;;2.38;;
35444;SDS011;21562;49.476;6.086;2022-12-29T15:46:41;15.88;;;2.15;;
35444;SDS011;21562;49.476;6.086;2022-12-29T15:49:08;18.42;;;2.70;;
35444;SDS011;21562;49.476;6.086;2022-12-29T15:51:37;16.77;;;1.98;;
35444;SDS011;21562;49.476;6.086;2022-12-29T15:54:04;19.17;;;2.50;;
35444;SDS011;21562;49.476;6.086;2022-12-29T15:56:31;10.98;;;1.50;;
35444;SDS011;21562;49.476;6.086;2022-12-29T15:58:58;15.82;;;1.83;;
35444;SDS011;21562;49.476;6.086;2022-12-29T16:03:58;22.30;;;3.83;;
35444;SDS011;21562;49.476;6.086;2022-12-29T16:09:03;14.75;;;1.75;;
35444;SDS011;21562;49.476;6.086;2022-12-29T16:11:56;11.35;;;1.90;;
35444;SDS011;21562;49.476;6.086;2022-12-29T16:17:09;13.40;;;1.80;;
35444;SDS011;21562;49.476;6.086;2022-12-29T16:19:41;13.95;;;2.40;;
35444;SDS011;21562;49.476;6.086;2022-12-29T16:22:17;9.43;;;1.58;;
35444;SDS011;21562;49.476;6.086;2022-12-29T16:25:06;19.10;;;2.15;;
35444;SDS011;21562;49.476;6.086;2022-12-29T16:27:48;20.05;;;2.15;;
35444;SDS011;21562;49.476;6.086;2022-12-29T16:30:22;13.65;;;1.70;;
35444;SDS011;21562;49.476;6.086;2022-12-29T16:32:51;9.23;;;1.77;;
35444;SDS011;21562;49.476;6.086;2022-12-29T16:35:26;13.68;;;1.95;;
35444;SDS011;21562;49.476;6.086;2022-12-29T16:40:52;16.88;;;2.17;;
35444;SDS011;21562;49.476;6.086;2022-12-29T16:43:31;15.38;;;2.78;;
35444;SDS011;21562;49.476;6.086;2022-12-29T16:51:02;14.40;;;2.90;;
35444;SDS011;21562;49.476;6.086;2022-12-29T16:53:40;18.42;;;2.58;;
35444;SDS011;21562;49.476;6.086;2022-12-29T16:56:16;14.73;;;2.10;;
35444;SDS011;21562;49.476;6.086;2022-12-29T16:58:49;17.50;;;2.15;;
35444;SDS011;21562;49.476;6.086;2022-12-29T17:01:19;19.73;;;2.63;;
35444;SDS011;21562;49.476;6.086;2022-12-29T17:03:47;23.10;;;2.42;;
35444;SDS011;21562;49.476;6.086;2022-12-29T17:06:18;22.65;;;2.60;;
35444;SDS011;21562;49.476;6.086;2022-12-29T17:08:45;13.82;;;2.75;;
35444;SDS011;21562;49.476;6.086;2022-12-29T17:11:19;21.02;;;4.40;;
35444;SDS011;21562;49.476;6.086;2022-12-29T17:14:04;22.77;;;2.63;;
35444;SDS011;21562;49.476;6.086;2022-12-29T17:16:30;20.88;;;2.05;;
35444;SDS011;21562;49.476;6.086;2022-12-29T17:18:56;20.13;;;2.13;;
35444;SDS011;21562;49.476;6.086;2022-12-29T17:21:22;9.00;;;2.10;;
35444;SDS011;21562;49.476;6.086;2022-12-29T17:23:48;33.92;;;2.72;;
35444;SDS011;21562;49.476;6.086;2022-12-29T17:26:13;16.10;;;2.33;;
35444;SDS011;21562;49.476;6.086;2022-12-29T17:28:39;17.13;;;2.05;;
35444;SDS011;21562;49.476;6.086;2022-12-29T17:31:05;18.92;;;1.95;;
35444;SDS011;21562;49.476;6.086;2022-12-29T17:33:34;13.85;;;2.20;;
35444;SDS011;21562;49.476;6.086;2022-12-29T17:36:02;8.80;;;2.33;;
35444;SDS011;21562;49.476;6.086;2022-12-29T17:38:29;13.07;;;2.05;;
35444;SDS011;21562;49.476;6.086;2022-12-29T17:40:56;15.05;;;1.90;;
35444;SDS011;21562;49.476;6.086;2022-12-29T17:43:23;15.93;;;1.90;;
35444;SDS011;21562;49.476;6.086;2022-12-29T17:45:56;18.30;;;2.38;;
35444;SDS011;21562;49.476;6.086;2022-12-29T17:48:23;14.05;;;1.80;;
35444;SDS011;21562;49.476;6.086;2022-12-29T17:50:50;26.33;;;3.03;;
35444;SDS011;21562;49.476;6.086;2022-12-29T17:53:24;8.98;;;1.85;;
35444;SDS011;21562;49.476;6.086;2022-12-29T17:55:51;15.10;;;1.90;;